createdAt,value
2023-03-21T00:01:54.483Z,11.90
2023-03-21T00:04:23.400Z,11.90
2023-03-21T00:06:50.751Z,11.90
2023-03-21T00:09:18.546Z,11.80
2023-03-21T00:11:45.818Z,11.80
2023-03-21T00:14:14.534Z,11.90
2023-03-21T00:16:42.122Z,11.90
2023-03-21T00:19:10.442Z,12.10
2023-03-21T00:21:51.879Z,12.10
2023-03-21T00:24:26.711Z,11.90
2023-03-21T00:26:53.926Z,11.80
2023-03-21T00:29:21.094Z,11.80
2023-03-21T00:31:48.244Z,11.90
2023-03-21T00:34:15.983Z,11.80
2023-03-21T00:36:43.469Z,11.80
2023-03-21T00:39:13.247Z,11.90
2023-03-21T00:41:43.145Z,11.90
2023-03-21T00:44:15.734Z,11.90
2023-03-21T00:46:54.573Z,12.00
2023-03-21T00:49:34.031Z,11.90
2023-03-21T00:52:14.625Z,12.00
2023-03-21T00:54:44.027Z,12.10
2023-03-21T00:57:11.037Z,12.20
2023-03-21T00:59:37.816Z,12.10
2023-03-21T01:02:07.523Z,12.30
2023-03-21T01:04:34.809Z,12.20
2023-03-21T01:07:01.678Z,12.30
2023-03-21T01:09:28.755Z,12.40
2023-03-21T01:11:55.964Z,12.40
2023-03-21T01:14:24.113Z,12.50
2023-03-21T01:16:54.185Z,12.50
2023-03-21T01:19:29.185Z,12.40
2023-03-21T01:22:00.605Z,12.40
2023-03-21T01:24:27.968Z,12.40
2023-03-21T01:26:55.280Z,12.20
2023-03-21T01:29:22.245Z,12.20
2023-03-21T01:31:49.299Z,12.40
2023-03-21T01:34:16.617Z,12.50
2023-03-21T01:36:43.818Z,12.40
2023-03-21T01:39:11.476Z,12.50
2023-03-21T01:41:43.451Z,12.50
2023-03-21T01:44:16.422Z,12.50
2023-03-21T01:49:41.774Z,12.40
2023-03-21T01:52:23.584Z,12.40
2023-03-21T01:54:56.903Z,12.40
2023-03-21T01:57:40.453Z,12.40
2023-03-21T02:00:13.995Z,12.40
2023-03-21T02:02:52.209Z,12.30
2023-03-21T02:05:49.884Z,12.40
2023-03-21T02:08:17.255Z,12.40
2023-03-21T02:10:48.003Z,12.30
2023-03-21T02:13:17.241Z,12.50
2023-03-21T02:16:07.752Z,12.40
2023-03-21T02:18:45.130Z,12.30
2023-03-21T02:21:38.477Z,12.40
2023-03-21T02:24:30.370Z,12.40
2023-03-21T02:27:06.710Z,12.60
2023-03-21T02:29:45.625Z,12.40
2023-03-21T02:32:47.355Z,12.40
2023-03-21T02:35:30.276Z,12.50
2023-03-21T02:38:08.737Z,12.40
2023-03-21T02:40:45.451Z,12.40
2023-03-21T02:43:30.364Z,12.40
2023-03-21T02:46:51.085Z,12.40
2023-03-21T02:49:30.394Z,12.50
2023-03-21T02:52:08.562Z,12.50
2023-03-21T02:54:48.021Z,12.40
2023-03-21T02:57:20.939Z,12.40
2023-03-21T02:59:55.659Z,12.40
2023-03-21T03:02:28.389Z,12.40
2023-03-21T03:04:55.865Z,12.30
2023-03-21T03:08:17.147Z,12.50
2023-03-21T03:10:50.078Z,12.50
2023-03-21T03:13:48.029Z,12.70
2023-03-21T03:16:30.179Z,12.60
2023-03-21T03:19:00.262Z,12.60
2023-03-21T03:21:36.430Z,12.50
2023-03-21T03:24:11.758Z,12.40
2023-03-21T03:26:51.216Z,12.40
2023-03-21T03:29:20.919Z,12.50
2023-03-21T03:32:02.322Z,12.50
2023-03-21T03:34:34.954Z,12.40
2023-03-21T03:37:05.393Z,12.30
2023-03-21T03:39:39.536Z,12.20
2023-03-21T03:42:27.163Z,12.20
2023-03-21T03:44:55.997Z,12.10
2023-03-21T03:47:42.100Z,12.00
2023-03-21T03:50:44.637Z,11.90
2023-03-21T03:53:53.004Z,12.10
2023-03-21T03:56:21.004Z,12.00
2023-03-21T03:58:48.863Z,12.10
2023-03-21T04:01:16.115Z,12.10
2023-03-21T04:03:50.665Z,12.10
2023-03-21T04:06:19.960Z,12.10
2023-03-21T04:08:46.846Z,12.10
2023-03-21T04:11:18.102Z,12.00
2023-03-21T04:13:44.979Z,12.10
2023-03-21T04:16:13.064Z,12.10
2023-03-21T04:18:41.227Z,12.00
2023-03-21T04:21:12.969Z,11.90
2023-03-21T04:23:40.923Z,12.00
2023-03-21T04:26:08.828Z,12.00
2023-03-21T04:28:37.059Z,11.80
2023-03-21T04:31:22.603Z,11.80
2023-03-21T04:33:52.256Z,11.70
2023-03-21T04:36:27.637Z,11.60
2023-03-21T04:38:57.286Z,11.80
2023-03-21T04:41:24.236Z,11.70
2023-03-21T04:43:52.675Z,11.60
2023-03-21T04:46:19.645Z,11.70
2023-03-21T04:48:47.225Z,11.60
2023-03-21T04:51:14.122Z,11.50
2023-03-21T04:53:43.668Z,11.60
2023-03-21T04:56:11.810Z,11.60
2023-03-21T04:58:40.714Z,11.70
2023-03-21T05:01:08.271Z,11.80
2023-03-21T05:03:40.190Z,11.80
2023-03-21T05:06:09.052Z,11.80
2023-03-21T05:08:36.616Z,11.80
2023-03-21T05:11:03.911Z,11.80
2023-03-21T05:13:31.568Z,11.80
2023-03-21T05:15:58.588Z,11.80
2023-03-21T05:18:26.301Z,11.80
2023-03-21T05:20:56.883Z,11.80
2023-03-21T05:23:24.434Z,11.80
2023-03-21T05:25:51.511Z,11.70
2023-03-21T05:28:18.337Z,11.70
2023-03-21T05:30:46.195Z,11.80
2023-03-21T05:33:13.742Z,11.80
2023-03-21T05:35:41.063Z,11.70
2023-03-21T05:38:08.189Z,11.70
2023-03-21T05:40:35.150Z,11.70
2023-03-21T05:43:02.274Z,11.70
2023-03-21T05:45:29.282Z,11.80
2023-03-21T05:47:56.341Z,11.80
2023-03-21T05:50:23.449Z,11.80
2023-03-21T05:52:50.391Z,11.80
2023-03-21T05:55:17.348Z,12.00
2023-03-21T05:57:44.346Z,11.90
2023-03-21T06:00:12.134Z,11.80
2023-03-21T06:02:39.983Z,11.80
2023-03-21T06:05:07.188Z,11.80
2023-03-21T06:07:35.538Z,11.70
2023-03-21T06:10:02.967Z,11.90
2023-03-21T06:12:30.041Z,11.70
2023-03-21T06:14:56.950Z,11.80
2023-03-21T06:17:23.820Z,11.90
2023-03-21T06:19:50.943Z,11.80
2023-03-21T06:22:17.745Z,11.80
2023-03-21T06:24:44.757Z,11.80
2023-03-21T06:27:11.601Z,11.90
2023-03-21T06:29:38.873Z,11.80
2023-03-21T06:32:07.578Z,11.90
2023-03-21T06:34:34.622Z,11.80
2023-03-21T06:37:02.096Z,12.00
2023-03-21T06:39:28.917Z,12.00
2023-03-21T06:41:55.728Z,12.00
2023-03-21T06:44:22.748Z,12.00
2023-03-21T06:46:49.599Z,12.10
2023-03-21T06:49:16.671Z,12.20
2023-03-21T06:51:43.480Z,12.20
2023-03-21T06:54:10.870Z,12.10
2023-03-21T06:56:37.775Z,12.20
2023-03-21T06:59:04.896Z,12.20
2023-03-21T07:01:31.970Z,12.20
2023-03-21T07:03:59.623Z,12.10
2023-03-21T07:06:27.369Z,12.20
2023-03-21T07:08:56.731Z,12.20
2023-03-21T07:11:24.988Z,12.10
2023-03-21T07:13:52.541Z,12.10
2023-03-21T07:16:19.563Z,12.20
2023-03-21T07:18:46.680Z,12.20
2023-03-21T07:21:14.423Z,12.20
2023-03-21T07:23:41.564Z,12.00
2023-03-21T07:26:09.308Z,11.90
2023-03-21T07:28:36.324Z,12.00
2023-03-21T07:31:06.689Z,12.20
2023-03-21T07:33:34.072Z,12.20
2023-03-21T07:36:02.843Z,12.30
2023-03-21T07:38:31.220Z,12.20
2023-03-21T07:41:00.888Z,12.20
2023-03-21T07:43:27.980Z,12.30
2023-03-21T07:45:59.134Z,12.20
2023-03-21T07:48:26.000Z,12.20
2023-03-21T07:50:52.979Z,12.30
2023-03-21T07:53:20.539Z,12.30
2023-03-21T07:55:56.511Z,12.40
2023-03-21T07:58:27.410Z,12.50
2023-03-21T08:00:56.544Z,12.50
2023-03-21T08:03:24.155Z,12.60
2023-03-21T08:05:52.720Z,12.50
2023-03-21T08:08:19.796Z,12.70
2023-03-21T08:10:46.763Z,12.70
2023-03-21T08:13:14.038Z,12.70
2023-03-21T08:15:42.495Z,12.60
2023-03-21T08:18:10.236Z,12.60
2023-03-21T08:20:37.690Z,12.60
2023-03-21T08:23:04.594Z,12.70
2023-03-21T08:25:31.561Z,12.80
2023-03-21T08:27:58.608Z,12.80
2023-03-21T08:30:28.202Z,12.80
2023-03-21T08:33:02.188Z,12.90
2023-03-21T08:35:30.529Z,12.90
2023-03-21T08:37:58.135Z,13.00
2023-03-21T08:40:25.900Z,12.80
2023-03-21T08:42:52.965Z,12.70
2023-03-21T08:45:20.008Z,12.60
2023-03-21T08:47:47.366Z,12.70
2023-03-21T08:50:18.205Z,12.70
2023-03-21T08:52:45.853Z,12.70
2023-03-21T08:55:14.041Z,12.60
2023-03-21T08:57:41.140Z,12.50
2023-03-21T09:00:15.101Z,12.50
2023-03-21T09:02:42.945Z,12.60
2023-03-21T09:05:12.168Z,12.80
2023-03-21T09:07:40.947Z,12.80
2023-03-21T09:10:20.582Z,12.70
2023-03-21T09:12:50.392Z,12.70
2023-03-21T09:15:18.582Z,12.70
2023-03-21T09:17:50.145Z,12.60
2023-03-21T09:20:20.951Z,12.70
2023-03-21T09:22:49.163Z,12.90
2023-03-21T09:25:16.780Z,13.00
2023-03-21T09:27:45.994Z,13.20
2023-03-21T09:30:16.195Z,13.10
2023-03-21T09:32:43.175Z,13.20
2023-03-21T09:35:11.508Z,13.10
2023-03-21T09:37:42.279Z,13.20
2023-03-21T09:40:35.562Z,13.20
2023-03-21T09:43:21.314Z,13.20
2023-03-21T09:45:57.101Z,13.20
2023-03-21T09:48:39.518Z,13.40
2023-03-21T09:51:16.102Z,13.30
2023-03-21T09:53:46.984Z,13.40
2023-03-21T09:56:14.284Z,13.30
2023-03-21T09:58:53.188Z,13.20
2023-03-21T10:01:35.289Z,13.20
2023-03-21T10:04:11.191Z,13.20
2023-03-21T10:06:41.280Z,13.20
2023-03-21T10:09:24.850Z,13.20
2023-03-21T10:12:21.664Z,13.40
2023-03-21T10:14:52.127Z,13.50
2023-03-21T10:17:43.592Z,13.40
2023-03-21T10:20:18.490Z,13.60
2023-03-21T10:22:46.957Z,13.80
2023-03-21T10:25:18.254Z,13.90
2023-03-21T10:27:46.657Z,14.20
2023-03-21T10:30:26.717Z,14.60
2023-03-21T10:32:59.134Z,14.70
2023-03-21T10:35:26.960Z,14.40
2023-03-21T10:37:53.982Z,14.50
2023-03-21T10:40:21.321Z,14.40
2023-03-21T10:42:48.317Z,14.30
2023-03-21T10:45:18.938Z,14.30
2023-03-21T10:47:49.654Z,14.30
2023-03-21T10:50:20.574Z,14.00
2023-03-21T10:52:53.562Z,14.10
2023-03-21T10:55:22.710Z,14.00
2023-03-21T10:57:55.842Z,13.90
2023-03-21T11:00:30.059Z,13.80
2023-03-21T11:02:58.816Z,13.90
2023-03-21T11:05:45.646Z,14.00
2023-03-21T11:08:16.482Z,14.10
2023-03-21T11:10:59.688Z,13.90
2023-03-21T11:13:33.714Z,14.10
2023-03-21T11:16:18.403Z,14.00
2023-03-21T11:18:51.412Z,14.00
2023-03-21T11:21:18.755Z,14.20
2023-03-21T11:23:48.814Z,14.30
2023-03-21T11:26:30.186Z,14.60
2023-03-21T11:28:57.719Z,14.50
2023-03-21T11:31:38.827Z,14.60
2023-03-21T11:34:09.825Z,14.70
2023-03-21T11:36:41.592Z,14.60
2023-03-21T11:39:11.652Z,14.60
2023-03-21T11:41:41.032Z,14.50
2023-03-21T11:44:31.436Z,14.40
2023-03-21T11:46:58.644Z,14.50
2023-03-21T11:49:26.309Z,14.40
2023-03-21T11:51:59.613Z,14.50
2023-03-21T11:54:32.500Z,14.60
2023-03-21T11:57:22.771Z,14.40
2023-03-21T12:00:22.755Z,14.50
2023-03-21T12:03:02.785Z,14.70
2023-03-21T12:05:41.471Z,14.60
2023-03-21T12:08:32.755Z,14.60
2023-03-21T12:11:15.400Z,14.40
2023-03-21T12:13:45.301Z,14.40
2023-03-21T12:16:56.410Z,14.50
2023-03-21T12:19:51.099Z,14.30
2023-03-21T12:22:42.256Z,14.20
2023-03-21T12:25:15.296Z,14.10
2023-03-21T12:28:03.918Z,13.90
2023-03-21T12:30:50.950Z,14.20
2023-03-21T12:33:49.016Z,14.20
2023-03-21T12:36:33.327Z,13.90
2023-03-21T12:39:17.731Z,13.60
2023-03-21T12:41:56.047Z,13.60
2023-03-21T12:44:26.379Z,13.60
2023-03-21T12:47:02.438Z,13.80
2023-03-21T12:49:42.910Z,13.80
2023-03-21T12:52:19.416Z,13.80
2023-03-21T12:54:53.909Z,14.10
2023-03-21T12:57:28.962Z,14.20
2023-03-21T13:00:22.913Z,14.00
2023-03-21T13:02:53.339Z,13.90
2023-03-21T13:05:27.491Z,14.10
2023-03-21T13:08:17.268Z,14.10
2023-03-21T13:10:46.036Z,13.90
2023-03-21T13:13:36.699Z,14.00
2023-03-21T13:16:12.770Z,13.90
2023-03-21T13:18:51.386Z,13.90
2023-03-21T13:21:34.714Z,13.70
2023-03-21T13:24:17.926Z,13.80
2023-03-21T13:27:16.548Z,13.60
2023-03-21T13:29:50.600Z,13.70
2023-03-21T13:32:29.877Z,13.60
2023-03-21T13:35:01.852Z,13.70
2023-03-21T13:37:34.075Z,13.80
2023-03-21T13:40:11.138Z,13.90
2023-03-21T13:42:45.201Z,13.80
2023-03-21T13:45:23.941Z,13.90
2023-03-21T13:47:56.687Z,13.70
2023-03-21T13:50:34.772Z,13.80
2023-03-21T13:53:04.623Z,14.00
2023-03-21T13:55:41.710Z,13.70
2023-03-21T13:58:25.042Z,13.80
2023-03-21T14:01:10.588Z,13.80
2023-03-21T14:03:40.708Z,13.90
2023-03-21T14:06:10.340Z,14.10
2023-03-21T14:08:41.333Z,14.20
2023-03-21T14:11:14.655Z,14.20
2023-03-21T14:13:50.749Z,14.30
2023-03-21T14:16:20.444Z,14.20
2023-03-21T14:18:56.891Z,14.40
2023-03-21T14:21:27.354Z,14.40
2023-03-21T14:24:06.032Z,14.30
2023-03-21T14:26:42.271Z,14.30
2023-03-21T14:29:25.609Z,14.30
2023-03-21T14:31:54.800Z,14.40
2023-03-21T14:34:23.504Z,14.40
2023-03-21T14:36:57.551Z,14.60
2023-03-21T14:39:31.553Z,14.70
2023-03-21T14:42:07.663Z,14.70
2023-03-21T14:44:53.845Z,14.70
2023-03-21T14:47:27.887Z,14.70
2023-03-21T14:49:56.579Z,14.80
2023-03-21T14:52:25.040Z,14.80
2023-03-21T14:54:53.233Z,14.80
2023-03-21T14:57:23.404Z,14.90
2023-03-21T14:59:53.626Z,14.90
2023-03-21T15:02:42.295Z,14.80
2023-03-21T15:05:31.659Z,14.80
2023-03-21T15:08:01.669Z,14.60
2023-03-21T15:10:31.846Z,14.70
2023-03-21T15:13:01.735Z,14.80
2023-03-21T15:15:30.310Z,14.80
2023-03-21T15:18:03.041Z,14.90
2023-03-21T15:20:34.116Z,15.00
2023-03-21T15:23:11.979Z,15.10
2023-03-21T15:25:39.655Z,15.00
2023-03-21T15:28:06.796Z,15.00
2023-03-21T15:30:34.519Z,15.10
2023-03-21T15:33:10.518Z,14.90
2023-03-21T15:35:46.160Z,15.10
2023-03-21T15:38:33.943Z,15.20
2023-03-21T15:41:33.770Z,15.30
2023-03-21T15:44:00.636Z,15.20
2023-03-21T15:46:42.343Z,15.10
2023-03-21T15:49:14.777Z,15.10
2023-03-21T15:51:47.364Z,15.10
2023-03-21T15:54:17.710Z,15.20
2023-03-21T15:56:46.161Z,15.20
2023-03-21T15:59:18.188Z,15.10
2023-03-21T16:01:49.167Z,15.20
2023-03-21T16:04:18.496Z,15.20
2023-03-21T16:07:17.559Z,15.00
2023-03-21T16:09:46.698Z,15.10
2023-03-21T16:12:18.282Z,15.30
2023-03-21T16:14:47.349Z,15.20
2023-03-21T16:17:23.847Z,15.40
2023-03-21T16:19:51.095Z,15.30
2023-03-21T16:22:19.962Z,15.50
2023-03-21T16:24:47.035Z,15.50
2023-03-21T16:27:14.530Z,15.50
2023-03-21T16:29:41.510Z,15.60
2023-03-21T16:32:15.527Z,15.40
2023-03-21T16:34:42.917Z,15.40
2023-03-21T16:37:16.084Z,15.20
2023-03-21T16:39:43.407Z,15.20
2023-03-21T16:42:12.272Z,15.10
2023-03-21T16:44:39.620Z,15.00
2023-03-21T16:47:21.475Z,15.00
2023-03-21T16:49:48.568Z,15.10
2023-03-21T16:52:16.366Z,15.10
2023-03-21T16:54:43.245Z,15.10
2023-03-21T16:57:27.612Z,15.10
2023-03-21T16:59:56.013Z,15.30
2023-03-21T17:02:24.865Z,15.20
2023-03-21T17:04:52.259Z,15.20
2023-03-21T17:07:19.658Z,15.20
2023-03-21T17:09:48.283Z,15.20
2023-03-21T17:12:16.315Z,15.00
2023-03-21T17:14:44.694Z,15.00
2023-03-21T17:17:16.757Z,15.10
2023-03-21T17:19:43.710Z,15.20
2023-03-21T17:22:13.287Z,15.10
2023-03-21T17:24:41.256Z,15.20
2023-03-21T17:27:11.749Z,15.10
2023-03-21T17:29:38.636Z,15.10
2023-03-21T17:32:05.699Z,15.00
2023-03-21T17:34:32.687Z,14.90
2023-03-21T17:36:59.686Z,14.80
2023-03-21T17:39:28.861Z,14.80
2023-03-21T17:41:57.140Z,14.70
2023-03-21T17:44:24.214Z,14.70
2023-03-21T17:46:52.500Z,14.80
2023-03-21T17:49:21.109Z,14.80
2023-03-21T17:51:48.151Z,14.80
2023-03-21T17:54:14.984Z,14.80
2023-03-21T17:56:42.168Z,14.80
2023-03-21T17:59:13.301Z,14.60
2023-03-21T18:01:40.756Z,14.60
2023-03-21T18:04:08.184Z,14.60
2023-03-21T18:06:37.364Z,14.60
2023-03-21T18:09:11.105Z,14.70
2023-03-21T18:11:39.201Z,14.70
2023-03-21T18:14:15.933Z,14.70
2023-03-21T18:16:45.044Z,14.60
2023-03-21T18:19:13.304Z,14.50
2023-03-21T18:21:44.282Z,14.60
2023-03-21T18:24:11.959Z,14.60
2023-03-21T18:26:38.868Z,14.70
2023-03-21T18:32:05.369Z,14.60
2023-03-21T18:34:34.686Z,14.70
2023-03-21T18:37:03.938Z,14.60
2023-03-21T18:39:33.177Z,14.60
2023-03-21T18:42:02.496Z,14.60
2023-03-21T18:44:31.257Z,14.50
2023-03-21T18:46:58.821Z,14.50
2023-03-21T18:52:12.793Z,14.20
2023-03-21T18:54:40.622Z,14.20
2023-03-21T18:59:56.896Z,14.00
2023-03-21T19:02:25.086Z,13.90
2023-03-21T19:04:52.283Z,13.90
2023-03-21T19:07:19.318Z,13.90
2023-03-21T19:10:09.494Z,13.90
2023-03-21T19:12:33.433Z,13.90
2023-03-21T19:15:00.896Z,13.80
2023-03-21T19:20:16.574Z,13.60
2023-03-21T19:22:44.537Z,13.70
2023-03-21T19:25:12.190Z,13.60
2023-03-21T19:27:39.917Z,13.50
2023-03-21T19:30:14.818Z,13.50
2023-03-21T19:32:43.761Z,13.50
2023-03-21T19:35:11.425Z,13.30
2023-03-21T19:37:38.266Z,13.10
2023-03-21T19:40:07.074Z,13.20
2023-03-21T19:42:36.435Z,13.30
2023-03-21T19:45:05.577Z,13.20
2023-03-21T19:47:32.977Z,13.20
2023-03-21T19:52:47.390Z,13.00
2023-03-21T19:55:15.115Z,12.90
2023-03-21T19:57:42.199Z,13.00
2023-03-21T20:00:11.583Z,12.90
2023-03-21T20:02:39.066Z,12.80
2023-03-21T20:05:08.932Z,12.80
2023-03-21T20:07:36.376Z,12.80
2023-03-21T20:10:03.977Z,12.80
2023-03-21T20:12:32.761Z,12.80
2023-03-21T20:15:12.382Z,12.80
2023-03-21T20:17:43.952Z,12.90
2023-03-21T20:20:14.662Z,12.60
2023-03-21T20:23:05.834Z,12.50
2023-03-21T20:25:30.054Z,12.40
2023-03-21T20:28:14.686Z,12.30
2023-03-21T20:30:51.304Z,12.30
2023-03-21T20:33:18.637Z,12.20
2023-03-21T20:36:32.167Z,12.20
2023-03-21T20:38:34.351Z,12.30
2023-03-21T20:41:03.047Z,12.10
2023-03-21T20:46:17.581Z,12.10
2023-03-21T20:48:48.753Z,12.10
2023-03-21T20:52:35.956Z,12.20
2023-03-21T20:54:03.560Z,12.20
2023-03-21T20:56:30.651Z,12.20
2023-03-21T20:59:12.156Z,12.10
2023-03-21T21:01:43.236Z,12.10
2023-03-21T21:04:11.665Z,12.00
2023-03-21T21:06:39.214Z,11.90
2023-03-21T21:09:06.208Z,12.10
2023-03-21T21:12:05.539Z,12.10
2023-03-21T21:14:21.027Z,12.10
2023-03-21T21:16:48.168Z,12.00
2023-03-21T21:19:15.401Z,12.20
2023-03-21T21:21:46.174Z,12.00
2023-03-21T21:24:14.733Z,12.10
2023-03-21T21:26:46.287Z,12.20
2023-03-21T21:29:17.376Z,12.20
2023-03-21T21:31:51.510Z,12.20
2023-03-21T21:34:19.861Z,12.20
2023-03-21T21:36:47.475Z,12.30
2023-03-21T21:39:17.750Z,12.30
2023-03-21T21:41:44.821Z,12.20
2023-03-21T21:44:12.056Z,12.20
2023-03-21T21:46:39.178Z,12.10
2023-03-21T21:49:06.934Z,12.00
2023-03-21T21:51:35.012Z,12.20
2023-03-21T21:54:03.932Z,12.10
2023-03-21T21:56:32.371Z,12.10
2023-03-21T21:59:03.481Z,12.00
2023-03-21T22:01:31.920Z,12.10
2023-03-21T22:04:06.384Z,11.90
2023-03-21T22:06:34.704Z,11.80
2023-03-21T22:09:03.904Z,11.90
2023-03-21T22:11:33.747Z,12.00
2023-03-21T22:14:00.853Z,12.20
2023-03-21T22:16:30.505Z,12.00
2023-03-21T22:18:57.604Z,11.90
2023-03-21T22:21:24.528Z,12.00
2023-03-21T22:23:51.313Z,11.90
2023-03-21T22:26:18.204Z,11.80
2023-03-21T22:28:45.448Z,11.80
2023-03-21T22:31:16.708Z,11.60
2023-03-21T22:33:44.776Z,11.80
2023-03-21T22:36:12.213Z,11.60
2023-03-21T22:38:42.164Z,11.70
2023-03-21T22:41:09.731Z,11.80
2023-03-21T22:43:36.668Z,11.60
2023-03-21T22:46:04.763Z,11.60
2023-03-21T22:48:32.490Z,11.70
2023-03-21T22:51:00.441Z,11.60
2023-03-21T22:53:27.741Z,11.50
2023-03-21T22:55:55.306Z,11.50
2023-03-21T22:58:22.360Z,11.40
2023-03-21T23:00:49.526Z,11.50
2023-03-21T23:03:17.090Z,11.60
2023-03-21T23:05:45.214Z,11.60
2023-03-21T23:08:13.113Z,11.60
2023-03-21T23:10:43.426Z,11.60
2023-03-21T23:13:13.274Z,11.60
2023-03-21T23:15:40.174Z,11.50
2023-03-21T23:18:10.115Z,11.50
2023-03-21T23:20:37.195Z,11.60
2023-03-21T23:23:04.130Z,11.60
2023-03-21T23:25:31.005Z,11.70
2023-03-21T23:27:57.999Z,11.80
2023-03-21T23:30:25.442Z,11.80
2023-03-21T23:32:52.593Z,11.80
2023-03-21T23:35:19.475Z,11.80
2023-03-21T23:37:52.898Z,11.90
2023-03-21T23:40:20.932Z,12.10
2023-03-21T23:42:48.000Z,12.00
2023-03-21T23:45:15.013Z,12.10
2023-03-21T23:47:41.900Z,12.10
2023-03-21T23:50:10.009Z,12.20
2023-03-21T23:52:37.183Z,12.20
2023-03-21T23:55:05.947Z,12.20
2023-03-21T23:57:33.181Z,12.30
